Terminal Aerodrome Forecast
Issued by NWS

Home | Current Version | Previous Version | Graphics & Text | Print | Product List | Glossary On
Versions: 1 2 3 4 5 6 7 8 9 10 11 12 13
000
FTUS41 KCLE 220500
TAFFDY
TAF
KFDY 220537Z 2206/2306 24006KT P6SM SCT090
     FM220900 26008KT P6SM SCT050 OVC090
     FM221300 34010KT P6SM SCT090
     FM222300 VRB05KT P6SM SKC=

USA.gov is the U.S. government's official web portal to all federal, state and local government web resources and services.